CYBW/YBW METAR and TAF weather

Enter ICAO airport designator
Station Type Date Time Source
CYBW METAR 2021/02/27 10:08 UTC NOAA

CYBW 271008Z AUTO 00000KT 1 1/2SM -SN OVC024 M14/M16 A2978 RMK SLP171


Station Type Date Time Source
CYBW Decoded METAR 2021/02/27 10:08 UTC NOAA

Calgary / Springbank, Canada (CYBW) 51-06N 114-22W
Feb 27, 2021 - 05:08 AM EST / 2021.02.27 1008 UTC
Wind: Calm:0
Visibility: 1 1/2 mile(s):0
Sky conditions: overcast
Weather: light snow
Temperature: 6 F (-14 C)
Dew Point: 3 F (-16 C)
Relative Humidity: 84%
Pressure (altimeter): 29.78 in. Hg (1008 hPa)
ob: CYBW 271008Z AUTO 00000KT 1 1/2SM -SN OVC024 M14/M16 A2978 RMK SLP171
cycle: 10

Station Type Date Time Source
CYBW TAF 2021/02/27 02:48 UTC NOAA

TAF
AMD TAF
AMD CYBW 270245Z 2702/2705 10008KT P6SM SCT012 OVC030
TEMPO 2702/2705 1/2SM SHSN VV005
RMK FCST BASED ON AUTO OBS. NXT FCST WILL BE ISSUED AT 271245Z

Example: see airport list